Terminal Aerodrome Forecast
Issued by NWS

Home | Current Version | Previous Version | Text Only | Print | Product List | Glossary On
Versions: 1 2 3 4 5 6 7 8 9 10 11 12 13 14 15 16 17 18 19 20 21 22 23 24 25 26 27 28 29
593
FTUS44 KOUN 300824 AAA
TAFPNC
TAF AMD
KPNC 300824Z 3008/0106 34007KT 6SM BR OVC006
      TEMPO 3008/3012 VRB06KT 4SM -RADZ BR OVC011
     FM301400 24010KT P6SM OVC006
     FM301800 27016G24KT P6SM OVC010
     FM010100 27015KT P6SM BKN100=

USA.gov is the U.S. government's official web portal to all federal, state and local government web resources and services.